<?xml version="1.0" encoding="UTF-8" standalone="no" ?>
<gpx xmlns="http://www.topografix.com/GPX/1/1" xmlns:xsi="http://www.w3.org/2001/XMLSchema-instance" xsi:schemaLocation="http://www.topografix.com/GPX/1/1 http://www.topografix.com/GPX/1/1/gpx.xsd" version="1.1" creator="VisuGPX - https://www.visugpx.com">
  <metadata>
    <name>Pic de la Touatere</name>
    <desc><![CDATA[Passer plutot a gauche du lac et eviter les couloirs directs, gelés et plein de rochers.
Sommet pelé, flemme...]]></desc>
  </metadata>
  <trk>
    <name><![CDATA[2019-03-30 09:32]]></name>
    <desc><![CDATA[<p>Heure de départ: 03/30/2019 09:32<br/>Heure d'arrivée: 03/30/2019 15:22<br/>Distance: 11,1 km (05:50)<br/>Temps déplacement: 00:36<br/>Vitesse moyenne: 1,89 km/h<br/>Vitesse moyenne mouv.: 18,17 km/h<br/>Vitesse Max.: 31,35 km/h<br/>Altitude minimale: 1396 m<br/>Altitude maximale: 2325 m<br/>Vitesse de montée: 222,2 m/h<br/>Vitesse de descente: -607,6 m/h<br/>Gain d'altitude: 950 m<br/>Perte d'altitude: -949 m<br/>Temps de montée: 04:16<br/>Temps de descente: 01:33<br/></p><hr align="center" width="480" style="height: 2px; width: 517px"/>]]></desc>
    <trkseg>
      <trkpt lat="42.90413" lon="0.10278">
        <ele>1402.42</ele>
        <time>2019-03-30T08:32:30Z</time>
      </trkpt>
      <trkpt lat="42.90394" lon="0.1028">
        <ele>1400.44</ele>
        <time>2019-03-30T08:35:21Z</time>
      </trkpt>
      <trkpt lat="42.90379" lon="0.10304">
        <ele>1400.5</ele>
        <time>2019-03-30T08:35:49Z</time>
      </trkpt>
      <trkpt lat="42.90356" lon="0.10318">
        <ele>1401.76</ele>
        <time>2019-03-30T08:36:18Z</time>
      </trkpt>
      <trkpt lat="42.9034" lon="0.10332">
        <ele>1401.23</ele>
        <time>2019-03-30T08:38:49Z</time>
      </trkpt>
      <trkpt lat="42.90319" lon="0.10336">
        <ele>1400.75</ele>
        <time>2019-03-30T08:39:11Z</time>
      </trkpt>
      <trkpt lat="42.90301" lon="0.10344">
        <ele>1401.24</ele>
        <time>2019-03-30T08:39:25Z</time>
      </trkpt>
      <trkpt lat="42.90283" lon="0.10349">
        <ele>1406.45</ele>
        <time>2019-03-30T08:39:44Z</time>
      </trkpt>
      <trkpt lat="42.90265" lon="0.10346">
        <ele>1411.55</ele>
        <time>2019-03-30T08:40:04Z</time>
      </trkpt>
      <trkpt lat="42.90247" lon="0.10356">
        <ele>1417.27</ele>
        <time>2019-03-30T08:40:25Z</time>
      </trkpt>
      <trkpt lat="42.9023" lon="0.10365">
        <ele>1420.64</ele>
        <time>2019-03-30T08:40:44Z</time>
      </trkpt>
      <trkpt lat="42.90207" lon="0.1037">
        <ele>1422.15</ele>
        <time>2019-03-30T08:41:09Z</time>
      </trkpt>
      <trkpt lat="42.90184" lon="0.10377">
        <ele>1424.93</ele>
        <time>2019-03-30T08:41:35Z</time>
      </trkpt>
      <trkpt lat="42.90168" lon="0.10387">
        <ele>1426.51</ele>
        <time>2019-03-30T08:41:56Z</time>
      </trkpt>
      <trkpt lat="42.90151" lon="0.10399">
        <ele>1427.8</ele>
        <time>2019-03-30T08:42:16Z</time>
      </trkpt>
      <trkpt lat="42.90131" lon="0.10423">
        <ele>1433.37</ele>
        <time>2019-03-30T08:42:47Z</time>
      </trkpt>
      <trkpt lat="42.9011" lon="0.10439">
        <ele>1438.55</ele>
        <time>2019-03-30T08:43:21Z</time>
      </trkpt>
      <trkpt lat="42.90092" lon="0.10455">
        <ele>1441.58</ele>
        <time>2019-03-30T08:43:49Z</time>
      </trkpt>
      <trkpt lat="42.90075" lon="0.10467">
        <ele>1443.59</ele>
        <time>2019-03-30T08:44:12Z</time>
      </trkpt>
      <trkpt lat="42.90059" lon="0.10479">
        <ele>1445.64</ele>
        <time>2019-03-30T08:44:32Z</time>
      </trkpt>
      <trkpt lat="42.90039" lon="0.10493">
        <ele>1448.73</ele>
        <time>2019-03-30T08:45:04Z</time>
      </trkpt>
      <trkpt lat="42.90019" lon="0.10511">
        <ele>1450.43</ele>
        <time>2019-03-30T08:45:34Z</time>
      </trkpt>
      <trkpt lat="42.90001" lon="0.10527">
        <ele>1453.66</ele>
        <time>2019-03-30T08:46:04Z</time>
      </trkpt>
      <trkpt lat="42.89982" lon="0.10543">
        <ele>1457.87</ele>
        <time>2019-03-30T08:46:38Z</time>
      </trkpt>
      <trkpt lat="42.89961" lon="0.10558">
        <ele>1461.86</ele>
        <time>2019-03-30T08:47:15Z</time>
      </trkpt>
      <trkpt lat="42.89938" lon="0.10574">
        <ele>1463.76</ele>
        <time>2019-03-30T08:47:44Z</time>
      </trkpt>
      <trkpt lat="42.89914" lon="0.10583">
        <ele>1468.1</ele>
        <time>2019-03-30T08:48:16Z</time>
      </trkpt>
      <trkpt lat="42.89893" lon="0.10598">
        <ele>1471.45</ele>
        <time>2019-03-30T08:48:48Z</time>
      </trkpt>
      <trkpt lat="42.89886" lon="0.10628">
        <ele>1474.64</ele>
        <time>2019-03-30T08:49:22Z</time>
      </trkpt>
      <trkpt lat="42.89879" lon="0.10656">
        <ele>1478.9</ele>
        <time>2019-03-30T08:49:57Z</time>
      </trkpt>
      <trkpt lat="42.89859" lon="0.10666">
        <ele>1481.21</ele>
        <time>2019-03-30T08:50:25Z</time>
      </trkpt>
      <trkpt lat="42.89837" lon="0.1067">
        <ele>1483.23</ele>
        <time>2019-03-30T08:50:57Z</time>
      </trkpt>
      <trkpt lat="42.89821" lon="0.1069">
        <ele>1486.72</ele>
        <time>2019-03-30T08:51:37Z</time>
      </trkpt>
      <trkpt lat="42.89807" lon="0.10707">
        <ele>1498.26</ele>
        <time>2019-03-30T08:52:01Z</time>
      </trkpt>
      <trkpt lat="42.89793" lon="0.10723">
        <ele>1500.64</ele>
        <time>2019-03-30T08:52:22Z</time>
      </trkpt>
      <trkpt lat="42.89776" lon="0.10735">
        <ele>1508.34</ele>
        <time>2019-03-30T08:52:47Z</time>
      </trkpt>
      <trkpt lat="42.89759" lon="0.10744">
        <ele>1513.61</ele>
        <time>2019-03-30T08:53:07Z</time>
      </trkpt>
      <trkpt lat="42.8974" lon="0.10753">
        <ele>1519.05</ele>
        <time>2019-03-30T08:53:29Z</time>
      </trkpt>
      <trkpt lat="42.89713" lon="0.10763">
        <ele>1522.84</ele>
        <time>2019-03-30T08:54:12Z</time>
      </trkpt>
      <trkpt lat="42.89696" lon="0.10774">
        <ele>1520.58</ele>
        <time>2019-03-30T08:54:32Z</time>
      </trkpt>
      <trkpt lat="42.89678" lon="0.10774">
        <ele>1521.19</ele>
        <time>2019-03-30T08:55:01Z</time>
      </trkpt>
      <trkpt lat="42.89657" lon="0.10786">
        <ele>1526.95</ele>
        <time>2019-03-30T08:56:07Z</time>
      </trkpt>
      <trkpt lat="42.89639" lon="0.10787">
        <ele>1528.19</ele>
        <time>2019-03-30T08:56:31Z</time>
      </trkpt>
      <trkpt lat="42.89614" lon="0.10789">
        <ele>1530.25</ele>
        <time>2019-03-30T08:57:11Z</time>
      </trkpt>
      <trkpt lat="42.89596" lon="0.10787">
        <ele>1531.67</ele>
        <time>2019-03-30T08:57:30Z</time>
      </trkpt>
      <trkpt lat="42.89577" lon="0.10792">
        <ele>1533.27</ele>
        <time>2019-03-30T08:58:00Z</time>
      </trkpt>
      <trkpt lat="42.89554" lon="0.10789">
        <ele>1534.4</ele>
        <time>2019-03-30T08:58:31Z</time>
      </trkpt>
      <trkpt lat="42.89531" lon="0.10779">
        <ele>1540.73</ele>
        <time>2019-03-30T08:59:11Z</time>
      </trkpt>
      <trkpt lat="42.89513" lon="0.10772">
        <ele>1543.5</ele>
        <time>2019-03-30T08:59:34Z</time>
      </trkpt>
      <trkpt lat="42.89489" lon="0.10771">
        <ele>1548.09</ele>
        <time>2019-03-30T09:00:00Z</time>
      </trkpt>
      <trkpt lat="42.8947" lon="0.10767">
        <ele>1548.93</ele>
        <time>2019-03-30T09:00:23Z</time>
      </trkpt>
      <trkpt lat="42.89441" lon="0.10758">
        <ele>1548.38</ele>
        <time>2019-03-30T09:00:58Z</time>
      </trkpt>
      <trkpt lat="42.89416" lon="0.10767">
        <ele>1550.89</ele>
        <time>2019-03-30T09:01:37Z</time>
      </trkpt>
      <trkpt lat="42.89397" lon="0.10766">
        <ele>1555.9</ele>
        <time>2019-03-30T09:01:59Z</time>
      </trkpt>
      <trkpt lat="42.89374" lon="0.10768">
        <ele>1564.83</ele>
        <time>2019-03-30T09:02:35Z</time>
      </trkpt>
      <trkpt lat="42.89356" lon="0.10769">
        <ele>1571.18</ele>
        <time>2019-03-30T09:02:53Z</time>
      </trkpt>
      <trkpt lat="42.89332" lon="0.10761">
        <ele>1574.11</ele>
        <time>2019-03-30T09:03:34Z</time>
      </trkpt>
      <trkpt lat="42.89317" lon="0.10747">
        <ele>1573.19</ele>
        <time>2019-03-30T09:03:57Z</time>
      </trkpt>
      <trkpt lat="42.89298" lon="0.10741">
        <ele>1554.75</ele>
        <time>2019-03-30T09:07:49Z</time>
      </trkpt>
      <trkpt lat="42.8928" lon="0.10738">
        <ele>1559.88</ele>
        <time>2019-03-30T09:08:11Z</time>
      </trkpt>
      <trkpt lat="42.89258" lon="0.10734">
        <ele>1566.67</ele>
        <time>2019-03-30T09:08:43Z</time>
      </trkpt>
      <trkpt lat="42.89236" lon="0.10731">
        <ele>1571.04</ele>
        <time>2019-03-30T09:09:18Z</time>
      </trkpt>
      <trkpt lat="42.89212" lon="0.10728">
        <ele>1570.68</ele>
        <time>2019-03-30T09:09:48Z</time>
      </trkpt>
      <trkpt lat="42.89195" lon="0.10722">
        <ele>1573.93</ele>
        <time>2019-03-30T09:10:09Z</time>
      </trkpt>
      <trkpt lat="42.89177" lon="0.1072">
        <ele>1581.73</ele>
        <time>2019-03-30T09:10:31Z</time>
      </trkpt>
      <trkpt lat="42.89158" lon="0.10717">
        <ele>1590.82</ele>
        <time>2019-03-30T09:10:58Z</time>
      </trkpt>
      <trkpt lat="42.89141" lon="0.10727">
        <ele>1589.02</ele>
        <time>2019-03-30T09:11:23Z</time>
      </trkpt>
      <trkpt lat="42.89122" lon="0.1073">
        <ele>1592.26</ele>
        <time>2019-03-30T09:11:43Z</time>
      </trkpt>
      <trkpt lat="42.89104" lon="0.10735">
        <ele>1599.46</ele>
        <time>2019-03-30T09:12:05Z</time>
      </trkpt>
      <trkpt lat="42.89086" lon="0.10731">
        <ele>1600.58</ele>
        <time>2019-03-30T09:12:29Z</time>
      </trkpt>
      <trkpt lat="42.8907" lon="0.10743">
        <ele>1598.18</ele>
        <time>2019-03-30T09:12:51Z</time>
      </trkpt>
      <trkpt lat="42.89053" lon="0.10752">
        <ele>1601.61</ele>
        <time>2019-03-30T09:13:15Z</time>
      </trkpt>
      <trkpt lat="42.89028" lon="0.10756">
        <ele>1604.23</ele>
        <time>2019-03-30T09:13:44Z</time>
      </trkpt>
      <trkpt lat="42.89001" lon="0.10759">
        <ele>1608.51</ele>
        <time>2019-03-30T09:14:15Z</time>
      </trkpt>
      <trkpt lat="42.88979" lon="0.10754">
        <ele>1611.85</ele>
        <time>2019-03-30T09:14:39Z</time>
      </trkpt>
      <trkpt lat="42.88959" lon="0.10752">
        <ele>1614.01</ele>
        <time>2019-03-30T09:15:00Z</time>
      </trkpt>
      <trkpt lat="42.88943" lon="0.10772">
        <ele>1613.91</ele>
        <time>2019-03-30T09:15:25Z</time>
      </trkpt>
      <trkpt lat="42.88926" lon="0.10783">
        <ele>1614.78</ele>
        <time>2019-03-30T09:15:43Z</time>
      </trkpt>
      <trkpt lat="42.88907" lon="0.10789">
        <ele>1616.62</ele>
        <time>2019-03-30T09:16:04Z</time>
      </trkpt>
      <trkpt lat="42.88889" lon="0.10796">
        <ele>1617.55</ele>
        <time>2019-03-30T09:16:24Z</time>
      </trkpt>
      <trkpt lat="42.88871" lon="0.10804">
        <ele>1619.65</ele>
        <time>2019-03-30T09:16:44Z</time>
      </trkpt>
      <trkpt lat="42.88847" lon="0.10815">
        <ele>1621.83</ele>
        <time>2019-03-30T09:17:11Z</time>
      </trkpt>
      <trkpt lat="42.88829" lon="0.10824">
        <ele>1621.92</ele>
        <time>2019-03-30T09:17:34Z</time>
      </trkpt>
      <trkpt lat="42.88814" lon="0.1084">
        <ele>1625.35</ele>
        <time>2019-03-30T09:17:56Z</time>
      </trkpt>
      <trkpt lat="42.88793" lon="0.10839">
        <ele>1626.99</ele>
        <time>2019-03-30T09:18:17Z</time>
      </trkpt>
      <trkpt lat="42.8877" lon="0.10846">
        <ele>1627.85</ele>
        <time>2019-03-30T09:18:44Z</time>
      </trkpt>
      <trkpt lat="42.88746" lon="0.10848">
        <ele>1629.96</ele>
        <time>2019-03-30T09:19:11Z</time>
      </trkpt>
      <trkpt lat="42.88724" lon="0.10848">
        <ele>1631.66</ele>
        <time>2019-03-30T09:19:49Z</time>
      </trkpt>
      <trkpt lat="42.88703" lon="0.10841">
        <ele>1632.22</ele>
        <time>2019-03-30T09:20:27Z</time>
      </trkpt>
      <trkpt lat="42.88683" lon="0.10853">
        <ele>1632.32</ele>
        <time>2019-03-30T09:21:38Z</time>
      </trkpt>
      <trkpt lat="42.8866" lon="0.10849">
        <ele>1632.83</ele>
        <time>2019-03-30T09:22:04Z</time>
      </trkpt>
      <trkpt lat="42.88636" lon="0.1085">
        <ele>1633.87</ele>
        <time>2019-03-30T09:22:31Z</time>
      </trkpt>
      <trkpt lat="42.88642" lon="0.10879">
        <ele>1637.23</ele>
        <time>2019-03-30T09:23:04Z</time>
      </trkpt>
      <trkpt lat="42.88618" lon="0.10887">
        <ele>1639.17</ele>
        <time>2019-03-30T09:23:26Z</time>
      </trkpt>
      <trkpt lat="42.88602" lon="0.109">
        <ele>1640.83</ele>
        <time>2019-03-30T09:23:45Z</time>
      </trkpt>
      <trkpt lat="42.88587" lon="0.10919">
        <ele>1643.43</ele>
        <time>2019-03-30T09:24:12Z</time>
      </trkpt>
      <trkpt lat="42.88577" lon="0.10945">
        <ele>1648.09</ele>
        <time>2019-03-30T09:24:53Z</time>
      </trkpt>
      <trkpt lat="42.88564" lon="0.10964">
        <ele>1649.79</ele>
        <time>2019-03-30T09:25:15Z</time>
      </trkpt>
      <trkpt lat="42.88545" lon="0.10978">
        <ele>1653.91</ele>
        <time>2019-03-30T09:25:36Z</time>
      </trkpt>
      <trkpt lat="42.88534" lon="0.11">
        <ele>1650.45</ele>
        <time>2019-03-30T09:26:06Z</time>
      </trkpt>
      <trkpt lat="42.88516" lon="0.11008">
        <ele>1655.81</ele>
        <time>2019-03-30T09:26:27Z</time>
      </trkpt>
      <trkpt lat="42.88507" lon="0.11033">
        <ele>1659.72</ele>
        <time>2019-03-30T09:26:55Z</time>
      </trkpt>
      <trkpt lat="42.8849" lon="0.1104">
        <ele>1658.94</ele>
        <time>2019-03-30T09:27:13Z</time>
      </trkpt>
      <trkpt lat="42.88473" lon="0.11067">
        <ele>1670.13</ele>
        <time>2019-03-30T09:27:57Z</time>
      </trkpt>
      <trkpt lat="42.88455" lon="0.11056">
        <ele>1669.78</ele>
        <time>2019-03-30T09:28:07Z</time>
      </trkpt>
      <trkpt lat="42.88448" lon="0.11079">
        <ele>1673.51</ele>
        <time>2019-03-30T09:28:23Z</time>
      </trkpt>
      <trkpt lat="42.88444" lon="0.11104">
        <ele>1683.14</ele>
        <time>2019-03-30T09:28:54Z</time>
      </trkpt>
      <trkpt lat="42.88434" lon="0.11129">
        <ele>1685.27</ele>
        <time>2019-03-30T09:29:11Z</time>
      </trkpt>
      <trkpt lat="42.8842" lon="0.11152">
        <ele>1690.04</ele>
        <time>2019-03-30T09:29:42Z</time>
      </trkpt>
      <trkpt lat="42.88404" lon="0.11173">
        <ele>1690.18</ele>
        <time>2019-03-30T09:30:08Z</time>
      </trkpt>
      <trkpt lat="42.88386" lon="0.11173">
        <ele>1689.49</ele>
        <time>2019-03-30T09:30:33Z</time>
      </trkpt>
      <trkpt lat="42.88367" lon="0.11169">
        <ele>1689.52</ele>
        <time>2019-03-30T09:30:59Z</time>
      </trkpt>
      <trkpt lat="42.8835" lon="0.11189">
        <ele>1689.88</ele>
        <time>2019-03-30T09:31:38Z</time>
      </trkpt>
      <trkpt lat="42.8833" lon="0.11182">
        <ele>1689.86</ele>
        <time>2019-03-30T09:32:07Z</time>
      </trkpt>
      <trkpt lat="42.88309" lon="0.11179">
        <ele>1690.52</ele>
        <time>2019-03-30T09:32:26Z</time>
      </trkpt>
      <trkpt lat="42.88291" lon="0.11177">
        <ele>1692.05</ele>
        <time>2019-03-30T09:32:35Z</time>
      </trkpt>
      <trkpt lat="42.88272" lon="0.11175">
        <ele>1695.92</ele>
        <time>2019-03-30T09:35:27Z</time>
      </trkpt>
      <trkpt lat="42.88253" lon="0.11172">
        <ele>1696.82</ele>
        <time>2019-03-30T09:35:47Z</time>
      </trkpt>
      <trkpt lat="42.88232" lon="0.1118">
        <ele>1699.01</ele>
        <time>2019-03-30T09:36:19Z</time>
      </trkpt>
      <trkpt lat="42.88226" lon="0.11151">
        <ele>1706.3</ele>
        <time>2019-03-30T09:37:08Z</time>
      </trkpt>
      <trkpt lat="42.88224" lon="0.1112">
        <ele>1713.01</ele>
        <time>2019-03-30T09:37:49Z</time>
      </trkpt>
      <trkpt lat="42.88226" lon="0.11093">
        <ele>1720.4</ele>
        <time>2019-03-30T09:38:37Z</time>
      </trkpt>
      <trkpt lat="42.88222" lon="0.11064">
        <ele>1726.51</ele>
        <time>2019-03-30T09:39:14Z</time>
      </trkpt>
      <trkpt lat="42.88203" lon="0.11072">
        <ele>1726.05</ele>
        <time>2019-03-30T09:39:58Z</time>
      </trkpt>
      <trkpt lat="42.88185" lon="0.1109">
        <ele>1725.92</ele>
        <time>2019-03-30T09:40:31Z</time>
      </trkpt>
      <trkpt lat="42.88168" lon="0.1111">
        <ele>1729.15</ele>
        <time>2019-03-30T09:41:06Z</time>
      </trkpt>
      <trkpt lat="42.88165" lon="0.11083">
        <ele>1733.88</ele>
        <time>2019-03-30T09:41:53Z</time>
      </trkpt>
      <trkpt lat="42.88161" lon="0.11055">
        <ele>1733.55</ele>
        <time>2019-03-30T09:42:31Z</time>
      </trkpt>
      <trkpt lat="42.88142" lon="0.11067">
        <ele>1735.9</ele>
        <time>2019-03-30T09:43:17Z</time>
      </trkpt>
      <trkpt lat="42.88121" lon="0.11058">
        <ele>1739.64</ele>
        <time>2019-03-30T09:44:29Z</time>
      </trkpt>
      <trkpt lat="42.88103" lon="0.11076">
        <ele>1741.91</ele>
        <time>2019-03-30T09:45:00Z</time>
      </trkpt>
      <trkpt lat="42.88092" lon="0.11103">
        <ele>1750.57</ele>
        <time>2019-03-30T09:45:37Z</time>
      </trkpt>
      <trkpt lat="42.88087" lon="0.11078">
        <ele>1766.93</ele>
        <time>2019-03-30T09:46:32Z</time>
      </trkpt>
      <trkpt lat="42.88069" lon="0.11074">
        <ele>1778.53</ele>
        <time>2019-03-30T09:49:47Z</time>
      </trkpt>
      <trkpt lat="42.88052" lon="0.11088">
        <ele>1782.71</ele>
        <time>2019-03-30T09:50:24Z</time>
      </trkpt>
      <trkpt lat="42.88032" lon="0.11081">
        <ele>1785.27</ele>
        <time>2019-03-30T09:51:54Z</time>
      </trkpt>
      <trkpt lat="42.88028" lon="0.11052">
        <ele>1783.03</ele>
        <time>2019-03-30T09:52:45Z</time>
      </trkpt>
      <trkpt lat="42.88008" lon="0.11054">
        <ele>1795.41</ele>
        <time>2019-03-30T09:53:38Z</time>
      </trkpt>
      <trkpt lat="42.87987" lon="0.11066">
        <ele>1804.82</ele>
        <time>2019-03-30T09:54:25Z</time>
      </trkpt>
      <trkpt lat="42.87969" lon="0.11081">
        <ele>1815.65</ele>
        <time>2019-03-30T09:55:08Z</time>
      </trkpt>
      <trkpt lat="42.87968" lon="0.11051">
        <ele>1834.17</ele>
        <time>2019-03-30T09:56:43Z</time>
      </trkpt>
      <trkpt lat="42.87947" lon="0.11052">
        <ele>1842.92</ele>
        <time>2019-03-30T09:58:01Z</time>
      </trkpt>
      <trkpt lat="42.87934" lon="0.11074">
        <ele>1850.89</ele>
        <time>2019-03-30T09:58:45Z</time>
      </trkpt>
      <trkpt lat="42.87914" lon="0.11073">
        <ele>1860.37</ele>
        <time>2019-03-30T10:02:08Z</time>
      </trkpt>
      <trkpt lat="42.87895" lon="0.11084">
        <ele>1866.42</ele>
        <time>2019-03-30T10:03:17Z</time>
      </trkpt>
      <trkpt lat="42.87878" lon="0.11102">
        <ele>1870.99</ele>
        <time>2019-03-30T10:04:02Z</time>
      </trkpt>
      <trkpt lat="42.87861" lon="0.11119">
        <ele>1878.4</ele>
        <time>2019-03-30T10:04:45Z</time>
      </trkpt>
      <trkpt lat="42.8786" lon="0.11093">
        <ele>1886.83</ele>
        <time>2019-03-30T10:05:59Z</time>
      </trkpt>
      <trkpt lat="42.87862" lon="0.11064">
        <ele>1890.54</ele>
        <time>2019-03-30T10:06:48Z</time>
      </trkpt>
      <trkpt lat="42.87845" lon="0.11077">
        <ele>1900.74</ele>
        <time>2019-03-30T10:10:06Z</time>
      </trkpt>
      <trkpt lat="42.87829" lon="0.11094">
        <ele>1906.2</ele>
        <time>2019-03-30T10:10:54Z</time>
      </trkpt>
      <trkpt lat="42.87813" lon="0.11111">
        <ele>1908.13</ele>
        <time>2019-03-30T10:11:50Z</time>
      </trkpt>
      <trkpt lat="42.87797" lon="0.11131">
        <ele>1909.71</ele>
        <time>2019-03-30T10:12:38Z</time>
      </trkpt>
      <trkpt lat="42.87791" lon="0.11108">
        <ele>1913.75</ele>
        <time>2019-03-30T10:13:54Z</time>
      </trkpt>
      <trkpt lat="42.87798" lon="0.11083">
        <ele>1918.57</ele>
        <time>2019-03-30T10:14:50Z</time>
      </trkpt>
      <trkpt lat="42.87782" lon="0.11094">
        <ele>1937.21</ele>
        <time>2019-03-30T10:16:36Z</time>
      </trkpt>
      <trkpt lat="42.87761" lon="0.11112">
        <ele>1950.92</ele>
        <time>2019-03-30T10:19:07Z</time>
      </trkpt>
      <trkpt lat="42.8775" lon="0.11136">
        <ele>1956.16</ele>
        <time>2019-03-30T10:19:41Z</time>
      </trkpt>
      <trkpt lat="42.87748" lon="0.11163">
        <ele>1961.22</ele>
        <time>2019-03-30T10:21:29Z</time>
      </trkpt>
      <trkpt lat="42.87739" lon="0.1119">
        <ele>1961.99</ele>
        <time>2019-03-30T10:22:04Z</time>
      </trkpt>
      <trkpt lat="42.87732" lon="0.11217">
        <ele>1964.69</ele>
        <time>2019-03-30T10:22:36Z</time>
      </trkpt>
      <trkpt lat="42.87712" lon="0.11236">
        <ele>1974.54</ele>
        <time>2019-03-30T10:24:16Z</time>
      </trkpt>
      <trkpt lat="42.87694" lon="0.11252">
        <ele>1981.06</ele>
        <time>2019-03-30T10:25:44Z</time>
      </trkpt>
      <trkpt lat="42.87674" lon="0.11232">
        <ele>1994.29</ele>
        <time>2019-03-30T10:26:35Z</time>
      </trkpt>
      <trkpt lat="42.87654" lon="0.1122">
        <ele>1998.79</ele>
        <time>2019-03-30T10:45:11Z</time>
      </trkpt>
      <trkpt lat="42.87632" lon="0.11228">
        <ele>2000.05</ele>
        <time>2019-03-30T10:45:41Z</time>
      </trkpt>
      <trkpt lat="42.87613" lon="0.11244">
        <ele>2001.06</ele>
        <time>2019-03-30T10:46:16Z</time>
      </trkpt>
      <trkpt lat="42.87594" lon="0.11263">
        <ele>2001.86</ele>
        <time>2019-03-30T10:46:51Z</time>
      </trkpt>
      <trkpt lat="42.87573" lon="0.11278">
        <ele>2001.91</ele>
        <time>2019-03-30T10:47:27Z</time>
      </trkpt>
      <trkpt lat="42.87554" lon="0.11293">
        <ele>2003.05</ele>
        <time>2019-03-30T10:48:00Z</time>
      </trkpt>
      <trkpt lat="42.87537" lon="0.11311">
        <ele>2005.64</ele>
        <time>2019-03-30T10:48:39Z</time>
      </trkpt>
      <trkpt lat="42.87519" lon="0.11328">
        <ele>2007.01</ele>
        <time>2019-03-30T10:49:14Z</time>
      </trkpt>
      <trkpt lat="42.87501" lon="0.11344">
        <ele>2010.8</ele>
        <time>2019-03-30T10:49:53Z</time>
      </trkpt>
      <trkpt lat="42.87487" lon="0.11369">
        <ele>2012.09</ele>
        <time>2019-03-30T10:52:03Z</time>
      </trkpt>
      <trkpt lat="42.87467" lon="0.11386">
        <ele>2013.42</ele>
        <time>2019-03-30T10:52:29Z</time>
      </trkpt>
      <trkpt lat="42.87451" lon="0.11399">
        <ele>2015.3</ele>
        <time>2019-03-30T10:52:50Z</time>
      </trkpt>
      <trkpt lat="42.87434" lon="0.11416">
        <ele>2015.26</ele>
        <time>2019-03-30T10:53:18Z</time>
      </trkpt>
      <trkpt lat="42.87423" lon="0.11436">
        <ele>2016.41</ele>
        <time>2019-03-30T10:53:37Z</time>
      </trkpt>
      <trkpt lat="42.87406" lon="0.11454">
        <ele>2017.01</ele>
        <time>2019-03-30T10:54:05Z</time>
      </trkpt>
      <trkpt lat="42.87386" lon="0.11469">
        <ele>2018.53</ele>
        <time>2019-03-30T10:54:35Z</time>
      </trkpt>
      <trkpt lat="42.87377" lon="0.11492">
        <ele>2017.09</ele>
        <time>2019-03-30T10:54:50Z</time>
      </trkpt>
      <trkpt lat="42.87367" lon="0.11514">
        <ele>2016.57</ele>
        <time>2019-03-30T10:54:59Z</time>
      </trkpt>
      <trkpt lat="42.87361" lon="0.1155">
        <ele>2013</ele>
        <time>2019-03-30T10:55:27Z</time>
      </trkpt>
      <trkpt lat="42.87353" lon="0.11585">
        <ele>2009.74</ele>
        <time>2019-03-30T10:56:08Z</time>
      </trkpt>
      <trkpt lat="42.87349" lon="0.11613">
        <ele>2012.4</ele>
        <time>2019-03-30T10:56:45Z</time>
      </trkpt>
      <trkpt lat="42.87345" lon="0.11644">
        <ele>2016.17</ele>
        <time>2019-03-30T10:57:18Z</time>
      </trkpt>
      <trkpt lat="42.87346" lon="0.11674">
        <ele>2016.83</ele>
        <time>2019-03-30T10:57:56Z</time>
      </trkpt>
      <trkpt lat="42.87353" lon="0.11703">
        <ele>2021.41</ele>
        <time>2019-03-30T10:58:33Z</time>
      </trkpt>
      <trkpt lat="42.87364" lon="0.1173">
        <ele>2028.58</ele>
        <time>2019-03-30T10:59:07Z</time>
      </trkpt>
      <trkpt lat="42.87373" lon="0.11755">
        <ele>2031.95</ele>
        <time>2019-03-30T11:00:01Z</time>
      </trkpt>
      <trkpt lat="42.87372" lon="0.11783">
        <ele>2035.88</ele>
        <time>2019-03-30T11:01:28Z</time>
      </trkpt>
      <trkpt lat="42.8738" lon="0.11813">
        <ele>2038.94</ele>
        <time>2019-03-30T11:01:59Z</time>
      </trkpt>
      <trkpt lat="42.87384" lon="0.11847">
        <ele>2043.35</ele>
        <time>2019-03-30T11:02:32Z</time>
      </trkpt>
      <trkpt lat="42.87389" lon="0.11877">
        <ele>2048.13</ele>
        <time>2019-03-30T11:03:04Z</time>
      </trkpt>
      <trkpt lat="42.87398" lon="0.11907">
        <ele>2052.2</ele>
        <time>2019-03-30T11:03:32Z</time>
      </trkpt>
      <trkpt lat="42.87412" lon="0.11928">
        <ele>2055.74</ele>
        <time>2019-03-30T11:03:57Z</time>
      </trkpt>
      <trkpt lat="42.87412" lon="0.11956">
        <ele>2058.16</ele>
        <time>2019-03-30T11:04:16Z</time>
      </trkpt>
      <trkpt lat="42.87419" lon="0.11979">
        <ele>2058.89</ele>
        <time>2019-03-30T11:04:26Z</time>
      </trkpt>
      <trkpt lat="42.87443" lon="0.11983">
        <ele>2058.03</ele>
        <time>2019-03-30T11:05:28Z</time>
      </trkpt>
      <trkpt lat="42.87458" lon="0.12003">
        <ele>2057.13</ele>
        <time>2019-03-30T11:06:04Z</time>
      </trkpt>
      <trkpt lat="42.87471" lon="0.12027">
        <ele>2058.75</ele>
        <time>2019-03-30T11:06:46Z</time>
      </trkpt>
      <trkpt lat="42.87482" lon="0.12053">
        <ele>2061.09</ele>
        <time>2019-03-30T11:07:38Z</time>
      </trkpt>
      <trkpt lat="42.87493" lon="0.12079">
        <ele>2060.94</ele>
        <time>2019-03-30T11:08:16Z</time>
      </trkpt>
      <trkpt lat="42.87511" lon="0.12091">
        <ele>2067.37</ele>
        <time>2019-03-30T11:08:57Z</time>
      </trkpt>
      <trkpt lat="42.87529" lon="0.12101">
        <ele>2068.72</ele>
        <time>2019-03-30T11:09:58Z</time>
      </trkpt>
      <trkpt lat="42.87551" lon="0.12103">
        <ele>2069.94</ele>
        <time>2019-03-30T11:10:44Z</time>
      </trkpt>
      <trkpt lat="42.87553" lon="0.12138">
        <ele>2076.3</ele>
        <time>2019-03-30T11:13:22Z</time>
      </trkpt>
      <trkpt lat="42.87572" lon="0.12142">
        <ele>2079.68</ele>
        <time>2019-03-30T11:16:21Z</time>
      </trkpt>
      <trkpt lat="42.87593" lon="0.12151">
        <ele>2081.22</ele>
        <time>2019-03-30T11:17:01Z</time>
      </trkpt>
      <trkpt lat="42.87614" lon="0.12149">
        <ele>2085.51</ele>
        <time>2019-03-30T11:17:52Z</time>
      </trkpt>
      <trkpt lat="42.87633" lon="0.12132">
        <ele>2088.54</ele>
        <time>2019-03-30T11:18:29Z</time>
      </trkpt>
      <trkpt lat="42.87647" lon="0.12113">
        <ele>2094.03</ele>
        <time>2019-03-30T11:19:12Z</time>
      </trkpt>
      <trkpt lat="42.87665" lon="0.12098">
        <ele>2097.99</ele>
        <time>2019-03-30T11:19:56Z</time>
      </trkpt>
      <trkpt lat="42.87679" lon="0.12114">
        <ele>2099.25</ele>
        <time>2019-03-30T11:23:39Z</time>
      </trkpt>
      <trkpt lat="42.87668" lon="0.12138">
        <ele>2100.95</ele>
        <time>2019-03-30T11:24:25Z</time>
      </trkpt>
      <trkpt lat="42.87656" lon="0.12161">
        <ele>2107.03</ele>
        <time>2019-03-30T11:25:33Z</time>
      </trkpt>
      <trkpt lat="42.87653" lon="0.12192">
        <ele>2114.96</ele>
        <time>2019-03-30T11:28:06Z</time>
      </trkpt>
      <trkpt lat="42.87658" lon="0.12221">
        <ele>2123.21</ele>
        <time>2019-03-30T11:30:21Z</time>
      </trkpt>
      <trkpt lat="42.8764" lon="0.12238">
        <ele>2122.71</ele>
        <time>2019-03-30T11:31:10Z</time>
      </trkpt>
      <trkpt lat="42.87622" lon="0.12251">
        <ele>2132.08</ele>
        <time>2019-03-30T11:31:59Z</time>
      </trkpt>
      <trkpt lat="42.87603" lon="0.12263">
        <ele>2146.09</ele>
        <time>2019-03-30T11:32:52Z</time>
      </trkpt>
      <trkpt lat="42.87588" lon="0.12283">
        <ele>2149.45</ele>
        <time>2019-03-30T11:33:40Z</time>
      </trkpt>
      <trkpt lat="42.87605" lon="0.123">
        <ele>2156.52</ele>
        <time>2019-03-30T11:35:03Z</time>
      </trkpt>
      <trkpt lat="42.87622" lon="0.12313">
        <ele>2158.39</ele>
        <time>2019-03-30T11:36:06Z</time>
      </trkpt>
      <trkpt lat="42.87611" lon="0.12343">
        <ele>2166.69</ele>
        <time>2019-03-30T11:39:03Z</time>
      </trkpt>
      <trkpt lat="42.87633" lon="0.12356">
        <ele>2177.72</ele>
        <time>2019-03-30T11:44:33Z</time>
      </trkpt>
      <trkpt lat="42.87651" lon="0.12371">
        <ele>2211.52</ele>
        <time>2019-03-30T12:07:28Z</time>
      </trkpt>
      <trkpt lat="42.87664" lon="0.12396">
        <ele>2223.24</ele>
        <time>2019-03-30T12:11:08Z</time>
      </trkpt>
      <trkpt lat="42.87684" lon="0.12401">
        <ele>2229.89</ele>
        <time>2019-03-30T12:14:52Z</time>
      </trkpt>
      <trkpt lat="42.87665" lon="0.12418">
        <ele>2241.07</ele>
        <time>2019-03-30T12:17:29Z</time>
      </trkpt>
      <trkpt lat="42.87646" lon="0.12426">
        <ele>2248.45</ele>
        <time>2019-03-30T12:20:03Z</time>
      </trkpt>
      <trkpt lat="42.87655" lon="0.12447">
        <ele>2258.46</ele>
        <time>2019-03-30T12:25:05Z</time>
      </trkpt>
      <trkpt lat="42.87674" lon="0.12451">
        <ele>2245.78</ele>
        <time>2019-03-30T12:30:09Z</time>
      </trkpt>
      <trkpt lat="42.87692" lon="0.12469">
        <ele>2241.2</ele>
        <time>2019-03-30T12:30:15Z</time>
      </trkpt>
      <trkpt lat="42.87693" lon="0.12498">
        <ele>2239.23</ele>
        <time>2019-03-30T12:30:17Z</time>
      </trkpt>
      <trkpt lat="42.87686" lon="0.12521">
        <ele>2238.38</ele>
        <time>2019-03-30T12:30:18Z</time>
      </trkpt>
      <trkpt lat="42.87672" lon="0.12546">
        <ele>2236.63</ele>
        <time>2019-03-30T12:30:20Z</time>
      </trkpt>
      <trkpt lat="42.87666" lon="0.12576">
        <ele>2234.9</ele>
        <time>2019-03-30T12:30:22Z</time>
      </trkpt>
      <trkpt lat="42.87665" lon="0.12602">
        <ele>2233.41</ele>
        <time>2019-03-30T12:30:24Z</time>
      </trkpt>
      <trkpt lat="42.87675" lon="0.12627">
        <ele>2230.39</ele>
        <time>2019-03-30T12:30:28Z</time>
      </trkpt>
      <trkpt lat="42.87695" lon="0.12633">
        <ele>2226.35</ele>
        <time>2019-03-30T12:30:32Z</time>
      </trkpt>
      <trkpt lat="42.8772" lon="0.12617">
        <ele>2224.33</ele>
        <time>2019-03-30T12:30:34Z</time>
      </trkpt>
      <trkpt lat="42.87725" lon="0.12592">
        <ele>2222.62</ele>
        <time>2019-03-30T12:30:36Z</time>
      </trkpt>
      <trkpt lat="42.87726" lon="0.12563">
        <ele>2220.22</ele>
        <time>2019-03-30T12:30:39Z</time>
      </trkpt>
      <trkpt lat="42.87708" lon="0.12567">
        <ele>2217.38</ele>
        <time>2019-03-30T12:30:43Z</time>
      </trkpt>
      <trkpt lat="42.87688" lon="0.12551">
        <ele>2215.26</ele>
        <time>2019-03-30T12:30:46Z</time>
      </trkpt>
      <trkpt lat="42.87672" lon="0.12523">
        <ele>2213.57</ele>
        <time>2019-03-30T12:30:49Z</time>
      </trkpt>
      <trkpt lat="42.87659" lon="0.12505">
        <ele>2212.98</ele>
        <time>2019-03-30T12:30:55Z</time>
      </trkpt>
      <trkpt lat="42.87669" lon="0.12482">
        <ele>2208.91</ele>
        <time>2019-03-30T12:31:10Z</time>
      </trkpt>
      <trkpt lat="42.87667" lon="0.12457">
        <ele>2220.25</ele>
        <time>2019-03-30T12:31:22Z</time>
      </trkpt>
      <trkpt lat="42.87652" lon="0.12443">
        <ele>2255.64</ele>
        <time>2019-03-30T12:32:27Z</time>
      </trkpt>
      <trkpt lat="42.87629" lon="0.12453">
        <ele>2265.59</ele>
        <time>2019-03-30T12:42:46Z</time>
      </trkpt>
      <trkpt lat="42.8761" lon="0.1246">
        <ele>2271.29</ele>
        <time>2019-03-30T12:43:43Z</time>
      </trkpt>
      <trkpt lat="42.87602" lon="0.12487">
        <ele>2275.34</ele>
        <time>2019-03-30T12:44:36Z</time>
      </trkpt>
      <trkpt lat="42.8762" lon="0.12491">
        <ele>2282.52</ele>
        <time>2019-03-30T12:47:10Z</time>
      </trkpt>
      <trkpt lat="42.87607" lon="0.1251">
        <ele>2288.89</ele>
        <time>2019-03-30T12:47:56Z</time>
      </trkpt>
      <trkpt lat="42.87591" lon="0.12529">
        <ele>2289.59</ele>
        <time>2019-03-30T12:48:56Z</time>
      </trkpt>
      <trkpt lat="42.87572" lon="0.12529">
        <ele>2292.34</ele>
        <time>2019-03-30T12:49:56Z</time>
      </trkpt>
      <trkpt lat="42.87554" lon="0.12541">
        <ele>2294.33</ele>
        <time>2019-03-30T12:50:49Z</time>
      </trkpt>
      <trkpt lat="42.87535" lon="0.12556">
        <ele>2296.3</ele>
        <time>2019-03-30T12:51:37Z</time>
      </trkpt>
      <trkpt lat="42.87515" lon="0.12542">
        <ele>2298.2</ele>
        <time>2019-03-30T12:52:40Z</time>
      </trkpt>
      <trkpt lat="42.87495" lon="0.12551">
        <ele>2305.81</ele>
        <time>2019-03-30T12:53:42Z</time>
      </trkpt>
      <trkpt lat="42.87477" lon="0.12564">
        <ele>2311.81</ele>
        <time>2019-03-30T12:56:25Z</time>
      </trkpt>
      <trkpt lat="42.87481" lon="0.1259">
        <ele>2323.13</ele>
        <time>2019-03-30T12:59:23Z</time>
      </trkpt>
      <trkpt lat="42.875" lon="0.12595">
        <ele>2316.58</ele>
        <time>2019-03-30T12:59:46Z</time>
      </trkpt>
      <trkpt lat="42.87482" lon="0.12591">
        <ele>2319.58</ele>
        <time>2019-03-30T13:23:23Z</time>
      </trkpt>
      <trkpt lat="42.87477" lon="0.12566">
        <ele>2325.1</ele>
        <time>2019-03-30T13:35:42Z</time>
      </trkpt>
      <trkpt lat="42.87493" lon="0.12551">
        <ele>2323.04</ele>
        <time>2019-03-30T13:35:51Z</time>
      </trkpt>
      <trkpt lat="42.87511" lon="0.1254">
        <ele>2317.28</ele>
        <time>2019-03-30T13:36:09Z</time>
      </trkpt>
      <trkpt lat="42.87531" lon="0.12542">
        <ele>2311.44</ele>
        <time>2019-03-30T13:36:18Z</time>
      </trkpt>
      <trkpt lat="42.8753" lon="0.12515">
        <ele>2300.18</ele>
        <time>2019-03-30T13:36:47Z</time>
      </trkpt>
      <trkpt lat="42.87541" lon="0.12493">
        <ele>2289.55</ele>
        <time>2019-03-30T13:36:57Z</time>
      </trkpt>
      <trkpt lat="42.87543" lon="0.12468">
        <ele>2282.6</ele>
        <time>2019-03-30T13:38:14Z</time>
      </trkpt>
      <trkpt lat="42.87538" lon="0.12442">
        <ele>2269.22</ele>
        <time>2019-03-30T13:38:21Z</time>
      </trkpt>
      <trkpt lat="42.87533" lon="0.12416">
        <ele>2261.49</ele>
        <time>2019-03-30T13:39:02Z</time>
      </trkpt>
      <trkpt lat="42.87535" lon="0.1239">
        <ele>2244.94</ele>
        <time>2019-03-30T13:39:09Z</time>
      </trkpt>
      <trkpt lat="42.87535" lon="0.12362">
        <ele>2230.41</ele>
        <time>2019-03-30T13:39:15Z</time>
      </trkpt>
      <trkpt lat="42.87538" lon="0.12337">
        <ele>2212.48</ele>
        <time>2019-03-30T13:39:20Z</time>
      </trkpt>
      <trkpt lat="42.87547" lon="0.12313">
        <ele>2198.22</ele>
        <time>2019-03-30T13:40:00Z</time>
      </trkpt>
      <trkpt lat="42.87565" lon="0.12305">
        <ele>2193.33</ele>
        <time>2019-03-30T13:40:04Z</time>
      </trkpt>
      <trkpt lat="42.87578" lon="0.12285">
        <ele>2188.05</ele>
        <time>2019-03-30T13:40:07Z</time>
      </trkpt>
      <trkpt lat="42.87594" lon="0.12269">
        <ele>2181.41</ele>
        <time>2019-03-30T13:40:10Z</time>
      </trkpt>
      <trkpt lat="42.87612" lon="0.1226">
        <ele>2177.55</ele>
        <time>2019-03-30T13:40:14Z</time>
      </trkpt>
      <trkpt lat="42.87632" lon="0.12254">
        <ele>2171.23</ele>
        <time>2019-03-30T13:40:19Z</time>
      </trkpt>
      <trkpt lat="42.87643" lon="0.12234">
        <ele>2165.77</ele>
        <time>2019-03-30T13:40:23Z</time>
      </trkpt>
      <trkpt lat="42.87656" lon="0.12215">
        <ele>2159.35</ele>
        <time>2019-03-30T13:40:27Z</time>
      </trkpt>
      <trkpt lat="42.87665" lon="0.12186">
        <ele>2150.15</ele>
        <time>2019-03-30T13:40:31Z</time>
      </trkpt>
      <trkpt lat="42.87671" lon="0.12162">
        <ele>2142.82</ele>
        <time>2019-03-30T13:40:34Z</time>
      </trkpt>
      <trkpt lat="42.87671" lon="0.12136">
        <ele>2134.29</ele>
        <time>2019-03-30T13:40:37Z</time>
      </trkpt>
      <trkpt lat="42.8767" lon="0.12112">
        <ele>2128.24</ele>
        <time>2019-03-30T13:40:40Z</time>
      </trkpt>
      <trkpt lat="42.87686" lon="0.12099">
        <ele>2122.43</ele>
        <time>2019-03-30T13:41:10Z</time>
      </trkpt>
      <trkpt lat="42.87699" lon="0.12082">
        <ele>2118.91</ele>
        <time>2019-03-30T13:41:15Z</time>
      </trkpt>
      <trkpt lat="42.87712" lon="0.12059">
        <ele>2111.79</ele>
        <time>2019-03-30T13:41:19Z</time>
      </trkpt>
      <trkpt lat="42.87719" lon="0.12036">
        <ele>2102.75</ele>
        <time>2019-03-30T13:41:23Z</time>
      </trkpt>
      <trkpt lat="42.87712" lon="0.12012">
        <ele>2097.99</ele>
        <time>2019-03-30T13:41:39Z</time>
      </trkpt>
      <trkpt lat="42.87712" lon="0.11986">
        <ele>2088.51</ele>
        <time>2019-03-30T13:41:45Z</time>
      </trkpt>
      <trkpt lat="42.8772" lon="0.11962">
        <ele>2075.55</ele>
        <time>2019-03-30T13:41:50Z</time>
      </trkpt>
      <trkpt lat="42.87725" lon="0.11933">
        <ele>2062.23</ele>
        <time>2019-03-30T13:41:56Z</time>
      </trkpt>
      <trkpt lat="42.87729" lon="0.11907">
        <ele>2056.41</ele>
        <time>2019-03-30T13:42:00Z</time>
      </trkpt>
      <trkpt lat="42.87715" lon="0.1189">
        <ele>2046.36</ele>
        <time>2019-03-30T13:42:06Z</time>
      </trkpt>
      <trkpt lat="42.87713" lon="0.11861">
        <ele>2039.6</ele>
        <time>2019-03-30T13:42:11Z</time>
      </trkpt>
      <trkpt lat="42.87718" lon="0.11834">
        <ele>2032.55</ele>
        <time>2019-03-30T13:42:16Z</time>
      </trkpt>
      <trkpt lat="42.87721" lon="0.11807">
        <ele>2027.58</ele>
        <time>2019-03-30T13:42:22Z</time>
      </trkpt>
      <trkpt lat="42.87715" lon="0.11782">
        <ele>2025.96</ele>
        <time>2019-03-30T13:42:26Z</time>
      </trkpt>
      <trkpt lat="42.8773" lon="0.11768">
        <ele>2027.67</ele>
        <time>2019-03-30T13:42:42Z</time>
      </trkpt>
      <trkpt lat="42.87714" lon="0.11751">
        <ele>2027.85</ele>
        <time>2019-03-30T13:43:00Z</time>
      </trkpt>
      <trkpt lat="42.87716" lon="0.11722">
        <ele>2024.15</ele>
        <time>2019-03-30T13:43:07Z</time>
      </trkpt>
      <trkpt lat="42.87726" lon="0.11698">
        <ele>2016.34</ele>
        <time>2019-03-30T13:43:13Z</time>
      </trkpt>
      <trkpt lat="42.87742" lon="0.11677">
        <ele>2010.11</ele>
        <time>2019-03-30T13:43:18Z</time>
      </trkpt>
      <trkpt lat="42.87737" lon="0.11651">
        <ele>2000.54</ele>
        <time>2019-03-30T13:43:41Z</time>
      </trkpt>
      <trkpt lat="42.8775" lon="0.11632">
        <ele>1989.74</ele>
        <time>2019-03-30T13:43:55Z</time>
      </trkpt>
      <trkpt lat="42.8776" lon="0.11611">
        <ele>1989.04</ele>
        <time>2019-03-30T13:45:10Z</time>
      </trkpt>
      <trkpt lat="42.87753" lon="0.11587">
        <ele>1985.4</ele>
        <time>2019-03-30T13:45:29Z</time>
      </trkpt>
      <trkpt lat="42.87751" lon="0.11563">
        <ele>1985.79</ele>
        <time>2019-03-30T13:45:54Z</time>
      </trkpt>
      <trkpt lat="42.87745" lon="0.11538">
        <ele>1986.07</ele>
        <time>2019-03-30T13:46:11Z</time>
      </trkpt>
      <trkpt lat="42.8774" lon="0.11514">
        <ele>1984.45</ele>
        <time>2019-03-30T13:46:35Z</time>
      </trkpt>
      <trkpt lat="42.87736" lon="0.1149">
        <ele>1984.64</ele>
        <time>2019-03-30T13:46:51Z</time>
      </trkpt>
      <trkpt lat="42.87731" lon="0.11465">
        <ele>1986</ele>
        <time>2019-03-30T13:47:06Z</time>
      </trkpt>
      <trkpt lat="42.87745" lon="0.11447">
        <ele>1988.43</ele>
        <time>2019-03-30T13:47:24Z</time>
      </trkpt>
      <trkpt lat="42.87752" lon="0.11421">
        <ele>1988.42</ele>
        <time>2019-03-30T13:47:48Z</time>
      </trkpt>
      <trkpt lat="42.8775" lon="0.11386">
        <ele>1990.17</ele>
        <time>2019-03-30T13:48:35Z</time>
      </trkpt>
      <trkpt lat="42.87741" lon="0.11364">
        <ele>1991.17</ele>
        <time>2019-03-30T13:48:53Z</time>
      </trkpt>
      <trkpt lat="42.87736" lon="0.1134">
        <ele>1991.96</ele>
        <time>2019-03-30T13:49:16Z</time>
      </trkpt>
      <trkpt lat="42.87725" lon="0.11319">
        <ele>1992.58</ele>
        <time>2019-03-30T13:49:36Z</time>
      </trkpt>
      <trkpt lat="42.87722" lon="0.11295">
        <ele>1991.4</ele>
        <time>2019-03-30T13:50:04Z</time>
      </trkpt>
      <trkpt lat="42.87732" lon="0.11275">
        <ele>1991.83</ele>
        <time>2019-03-30T13:50:57Z</time>
      </trkpt>
      <trkpt lat="42.87723" lon="0.1125">
        <ele>1991.74</ele>
        <time>2019-03-30T13:54:06Z</time>
      </trkpt>
      <trkpt lat="42.87727" lon="0.11224">
        <ele>1987.61</ele>
        <time>2019-03-30T13:54:11Z</time>
      </trkpt>
      <trkpt lat="42.87745" lon="0.11225">
        <ele>1978.12</ele>
        <time>2019-03-30T13:54:27Z</time>
      </trkpt>
      <trkpt lat="42.87752" lon="0.11199">
        <ele>1975.09</ele>
        <time>2019-03-30T13:54:30Z</time>
      </trkpt>
      <trkpt lat="42.87757" lon="0.11174">
        <ele>1969.22</ele>
        <time>2019-03-30T13:54:34Z</time>
      </trkpt>
      <trkpt lat="42.87755" lon="0.11146">
        <ele>1960.38</ele>
        <time>2019-03-30T13:54:41Z</time>
      </trkpt>
      <trkpt lat="42.87776" lon="0.11146">
        <ele>1951.57</ele>
        <time>2019-03-30T13:54:49Z</time>
      </trkpt>
      <trkpt lat="42.87795" lon="0.11145">
        <ele>1943.19</ele>
        <time>2019-03-30T13:54:54Z</time>
      </trkpt>
      <trkpt lat="42.87814" lon="0.11154">
        <ele>1930.68</ele>
        <time>2019-03-30T13:55:01Z</time>
      </trkpt>
      <trkpt lat="42.87829" lon="0.11174">
        <ele>1917.87</ele>
        <time>2019-03-30T13:55:07Z</time>
      </trkpt>
      <trkpt lat="42.87849" lon="0.11173">
        <ele>1903.91</ele>
        <time>2019-03-30T13:55:14Z</time>
      </trkpt>
      <trkpt lat="42.87869" lon="0.11174">
        <ele>1891.16</ele>
        <time>2019-03-30T13:55:20Z</time>
      </trkpt>
      <trkpt lat="42.87888" lon="0.11182">
        <ele>1884.43</ele>
        <time>2019-03-30T13:55:24Z</time>
      </trkpt>
      <trkpt lat="42.87908" lon="0.11183">
        <ele>1873.8</ele>
        <time>2019-03-30T13:55:28Z</time>
      </trkpt>
      <trkpt lat="42.87925" lon="0.1117">
        <ele>1864.46</ele>
        <time>2019-03-30T13:55:32Z</time>
      </trkpt>
      <trkpt lat="42.87942" lon="0.11158">
        <ele>1858.64</ele>
        <time>2019-03-30T13:56:32Z</time>
      </trkpt>
      <trkpt lat="42.87962" lon="0.11148">
        <ele>1857.3</ele>
        <time>2019-03-30T13:56:35Z</time>
      </trkpt>
      <trkpt lat="42.87976" lon="0.11126">
        <ele>1853.41</ele>
        <time>2019-03-30T13:56:39Z</time>
      </trkpt>
      <trkpt lat="42.87996" lon="0.11114">
        <ele>1845.41</ele>
        <time>2019-03-30T13:56:46Z</time>
      </trkpt>
      <trkpt lat="42.88015" lon="0.11128">
        <ele>1835.56</ele>
        <time>2019-03-30T13:56:50Z</time>
      </trkpt>
      <trkpt lat="42.8803" lon="0.11144">
        <ele>1818.23</ele>
        <time>2019-03-30T13:57:16Z</time>
      </trkpt>
      <trkpt lat="42.88044" lon="0.11161">
        <ele>1813.23</ele>
        <time>2019-03-30T13:57:23Z</time>
      </trkpt>
      <trkpt lat="42.88069" lon="0.11148">
        <ele>1805.44</ele>
        <time>2019-03-30T13:57:46Z</time>
      </trkpt>
      <trkpt lat="42.8809" lon="0.11135">
        <ele>1801.8</ele>
        <time>2019-03-30T13:57:49Z</time>
      </trkpt>
      <trkpt lat="42.88111" lon="0.11126">
        <ele>1794.44</ele>
        <time>2019-03-30T13:57:53Z</time>
      </trkpt>
      <trkpt lat="42.88127" lon="0.11113">
        <ele>1788.52</ele>
        <time>2019-03-30T13:57:58Z</time>
      </trkpt>
      <trkpt lat="42.88135" lon="0.11088">
        <ele>1782.91</ele>
        <time>2019-03-30T13:58:04Z</time>
      </trkpt>
      <trkpt lat="42.88152" lon="0.11077">
        <ele>1776.47</ele>
        <time>2019-03-30T13:58:09Z</time>
      </trkpt>
      <trkpt lat="42.88165" lon="0.11098">
        <ele>1765.34</ele>
        <time>2019-03-30T13:58:16Z</time>
      </trkpt>
      <trkpt lat="42.88182" lon="0.11117">
        <ele>1753.91</ele>
        <time>2019-03-30T13:58:22Z</time>
      </trkpt>
      <trkpt lat="42.88187" lon="0.11145">
        <ele>1744.85</ele>
        <time>2019-03-30T13:58:28Z</time>
      </trkpt>
      <trkpt lat="42.88178" lon="0.1117">
        <ele>1737.88</ele>
        <time>2019-03-30T13:58:33Z</time>
      </trkpt>
      <trkpt lat="42.88198" lon="0.11165">
        <ele>1725.26</ele>
        <time>2019-03-30T13:59:06Z</time>
      </trkpt>
      <trkpt lat="42.88222" lon="0.11168">
        <ele>1722.39</ele>
        <time>2019-03-30T13:59:10Z</time>
      </trkpt>
      <trkpt lat="42.8824" lon="0.11161">
        <ele>1719.75</ele>
        <time>2019-03-30T13:59:13Z</time>
      </trkpt>
      <trkpt lat="42.88259" lon="0.11167">
        <ele>1714.71</ele>
        <time>2019-03-30T13:59:16Z</time>
      </trkpt>
      <trkpt lat="42.88277" lon="0.11171">
        <ele>1707.35</ele>
        <time>2019-03-30T13:59:21Z</time>
      </trkpt>
      <trkpt lat="42.88296" lon="0.11178">
        <ele>1696.72</ele>
        <time>2019-03-30T13:59:31Z</time>
      </trkpt>
      <trkpt lat="42.88315" lon="0.11172">
        <ele>1692.03</ele>
        <time>2019-03-30T13:59:36Z</time>
      </trkpt>
      <trkpt lat="42.88336" lon="0.11168">
        <ele>1688.76</ele>
        <time>2019-03-30T13:59:40Z</time>
      </trkpt>
      <trkpt lat="42.88354" lon="0.11158">
        <ele>1686.24</ele>
        <time>2019-03-30T13:59:44Z</time>
      </trkpt>
      <trkpt lat="42.88372" lon="0.11164">
        <ele>1682.08</ele>
        <time>2019-03-30T13:59:52Z</time>
      </trkpt>
      <trkpt lat="42.88388" lon="0.11152">
        <ele>1683.69</ele>
        <time>2019-03-30T14:00:44Z</time>
      </trkpt>
      <trkpt lat="42.884" lon="0.11132">
        <ele>1683.65</ele>
        <time>2019-03-30T14:01:16Z</time>
      </trkpt>
      <trkpt lat="42.88413" lon="0.11114">
        <ele>1684.87</ele>
        <time>2019-03-30T14:01:26Z</time>
      </trkpt>
      <trkpt lat="42.88426" lon="0.11095">
        <ele>1682.46</ele>
        <time>2019-03-30T14:01:37Z</time>
      </trkpt>
      <trkpt lat="42.88436" lon="0.11073">
        <ele>1682.14</ele>
        <time>2019-03-30T14:01:43Z</time>
      </trkpt>
      <trkpt lat="42.88447" lon="0.11055">
        <ele>1680.76</ele>
        <time>2019-03-30T14:01:57Z</time>
      </trkpt>
      <trkpt lat="42.88467" lon="0.11053">
        <ele>1679.14</ele>
        <time>2019-03-30T14:02:10Z</time>
      </trkpt>
      <trkpt lat="42.88471" lon="0.11027">
        <ele>1679.89</ele>
        <time>2019-03-30T14:02:21Z</time>
      </trkpt>
      <trkpt lat="42.88473" lon="0.11003">
        <ele>1680.26</ele>
        <time>2019-03-30T14:02:30Z</time>
      </trkpt>
      <trkpt lat="42.88488" lon="0.10987">
        <ele>1679.04</ele>
        <time>2019-03-30T14:02:37Z</time>
      </trkpt>
      <trkpt lat="42.88505" lon="0.10971">
        <ele>1677.1</ele>
        <time>2019-03-30T14:02:42Z</time>
      </trkpt>
      <trkpt lat="42.88522" lon="0.10958">
        <ele>1674.17</ele>
        <time>2019-03-30T14:02:47Z</time>
      </trkpt>
      <trkpt lat="42.88536" lon="0.10938">
        <ele>1670.15</ele>
        <time>2019-03-30T14:02:53Z</time>
      </trkpt>
      <trkpt lat="42.88551" lon="0.10921">
        <ele>1667.43</ele>
        <time>2019-03-30T14:02:58Z</time>
      </trkpt>
      <trkpt lat="42.88564" lon="0.10901">
        <ele>1661.56</ele>
        <time>2019-03-30T14:03:07Z</time>
      </trkpt>
      <trkpt lat="42.88578" lon="0.10885">
        <ele>1658.64</ele>
        <time>2019-03-30T14:03:13Z</time>
      </trkpt>
      <trkpt lat="42.88593" lon="0.10871">
        <ele>1656.84</ele>
        <time>2019-03-30T14:03:17Z</time>
      </trkpt>
      <trkpt lat="42.88609" lon="0.10859">
        <ele>1653.61</ele>
        <time>2019-03-30T14:03:23Z</time>
      </trkpt>
      <trkpt lat="42.88625" lon="0.1084">
        <ele>1649.3</ele>
        <time>2019-03-30T14:03:34Z</time>
      </trkpt>
      <trkpt lat="42.88643" lon="0.10835">
        <ele>1646.57</ele>
        <time>2019-03-30T14:03:41Z</time>
      </trkpt>
      <trkpt lat="42.88664" lon="0.10843">
        <ele>1643.79</ele>
        <time>2019-03-30T14:03:45Z</time>
      </trkpt>
      <trkpt lat="42.88683" lon="0.10844">
        <ele>1641.28</ele>
        <time>2019-03-30T14:03:50Z</time>
      </trkpt>
      <trkpt lat="42.88701" lon="0.1084">
        <ele>1636.46</ele>
        <time>2019-03-30T14:04:52Z</time>
      </trkpt>
      <trkpt lat="42.88721" lon="0.10837">
        <ele>1634.44</ele>
        <time>2019-03-30T14:05:13Z</time>
      </trkpt>
      <trkpt lat="42.88747" lon="0.10839">
        <ele>1629.59</ele>
        <time>2019-03-30T14:05:55Z</time>
      </trkpt>
      <trkpt lat="42.88766" lon="0.10836">
        <ele>1627.86</ele>
        <time>2019-03-30T14:06:49Z</time>
      </trkpt>
      <trkpt lat="42.88787" lon="0.10828">
        <ele>1625.82</ele>
        <time>2019-03-30T14:06:55Z</time>
      </trkpt>
      <trkpt lat="42.88806" lon="0.10821">
        <ele>1623.65</ele>
        <time>2019-03-30T14:07:00Z</time>
      </trkpt>
      <trkpt lat="42.88827" lon="0.10813">
        <ele>1619.62</ele>
        <time>2019-03-30T14:07:05Z</time>
      </trkpt>
      <trkpt lat="42.88845" lon="0.10804">
        <ele>1616.75</ele>
        <time>2019-03-30T14:07:09Z</time>
      </trkpt>
      <trkpt lat="42.88862" lon="0.10798">
        <ele>1613.68</ele>
        <time>2019-03-30T14:07:38Z</time>
      </trkpt>
      <trkpt lat="42.88882" lon="0.10792">
        <ele>1612.85</ele>
        <time>2019-03-30T14:07:51Z</time>
      </trkpt>
      <trkpt lat="42.88899" lon="0.1078">
        <ele>1611.22</ele>
        <time>2019-03-30T14:07:57Z</time>
      </trkpt>
      <trkpt lat="42.88915" lon="0.10767">
        <ele>1610.04</ele>
        <time>2019-03-30T14:08:04Z</time>
      </trkpt>
      <trkpt lat="42.88934" lon="0.10755">
        <ele>1607.49</ele>
        <time>2019-03-30T14:08:12Z</time>
      </trkpt>
      <trkpt lat="42.88953" lon="0.10747">
        <ele>1605.42</ele>
        <time>2019-03-30T14:08:18Z</time>
      </trkpt>
      <trkpt lat="42.88973" lon="0.10747">
        <ele>1603.76</ele>
        <time>2019-03-30T14:08:25Z</time>
      </trkpt>
      <trkpt lat="42.88991" lon="0.10751">
        <ele>1602.2</ele>
        <time>2019-03-30T14:08:31Z</time>
      </trkpt>
      <trkpt lat="42.89013" lon="0.10749">
        <ele>1600.12</ele>
        <time>2019-03-30T14:08:37Z</time>
      </trkpt>
      <trkpt lat="42.89035" lon="0.1075">
        <ele>1597.37</ele>
        <time>2019-03-30T14:08:42Z</time>
      </trkpt>
      <trkpt lat="42.89058" lon="0.10743">
        <ele>1595.2</ele>
        <time>2019-03-30T14:08:47Z</time>
      </trkpt>
      <trkpt lat="42.89076" lon="0.10728">
        <ele>1592.75</ele>
        <time>2019-03-30T14:08:52Z</time>
      </trkpt>
      <trkpt lat="42.89099" lon="0.10726">
        <ele>1589.96</ele>
        <time>2019-03-30T14:08:57Z</time>
      </trkpt>
      <trkpt lat="42.8912" lon="0.10727">
        <ele>1585.15</ele>
        <time>2019-03-30T14:09:02Z</time>
      </trkpt>
      <trkpt lat="42.89138" lon="0.10722">
        <ele>1583.62</ele>
        <time>2019-03-30T14:09:09Z</time>
      </trkpt>
      <trkpt lat="42.89157" lon="0.10714">
        <ele>1579.72</ele>
        <time>2019-03-30T14:09:13Z</time>
      </trkpt>
      <trkpt lat="42.89179" lon="0.10716">
        <ele>1577.24</ele>
        <time>2019-03-30T14:09:17Z</time>
      </trkpt>
      <trkpt lat="42.89199" lon="0.1072">
        <ele>1575.13</ele>
        <time>2019-03-30T14:09:20Z</time>
      </trkpt>
      <trkpt lat="42.89217" lon="0.10725">
        <ele>1572.88</ele>
        <time>2019-03-30T14:09:23Z</time>
      </trkpt>
      <trkpt lat="42.89239" lon="0.10728">
        <ele>1570.34</ele>
        <time>2019-03-30T14:09:27Z</time>
      </trkpt>
      <trkpt lat="42.89259" lon="0.10733">
        <ele>1567.11</ele>
        <time>2019-03-30T14:09:31Z</time>
      </trkpt>
      <trkpt lat="42.89277" lon="0.10736">
        <ele>1564.97</ele>
        <time>2019-03-30T14:09:34Z</time>
      </trkpt>
      <trkpt lat="42.89295" lon="0.10737">
        <ele>1562.29</ele>
        <time>2019-03-30T14:09:37Z</time>
      </trkpt>
      <trkpt lat="42.89313" lon="0.10744">
        <ele>1559.53</ele>
        <time>2019-03-30T14:09:40Z</time>
      </trkpt>
      <trkpt lat="42.89335" lon="0.10757">
        <ele>1554.47</ele>
        <time>2019-03-30T14:09:44Z</time>
      </trkpt>
      <trkpt lat="42.89356" lon="0.10768">
        <ele>1549.23</ele>
        <time>2019-03-30T14:09:47Z</time>
      </trkpt>
      <trkpt lat="42.89376" lon="0.10765">
        <ele>1545.04</ele>
        <time>2019-03-30T14:09:50Z</time>
      </trkpt>
      <trkpt lat="42.89398" lon="0.10767">
        <ele>1541.75</ele>
        <time>2019-03-30T14:09:54Z</time>
      </trkpt>
      <trkpt lat="42.89416" lon="0.10766">
        <ele>1538.33</ele>
        <time>2019-03-30T14:09:57Z</time>
      </trkpt>
      <trkpt lat="42.89436" lon="0.10763">
        <ele>1535.16</ele>
        <time>2019-03-30T14:10:00Z</time>
      </trkpt>
      <trkpt lat="42.89456" lon="0.10761">
        <ele>1533.86</ele>
        <time>2019-03-30T14:10:03Z</time>
      </trkpt>
      <trkpt lat="42.89478" lon="0.10762">
        <ele>1532.22</ele>
        <time>2019-03-30T14:10:08Z</time>
      </trkpt>
      <trkpt lat="42.89498" lon="0.10765">
        <ele>1529.89</ele>
        <time>2019-03-30T14:10:12Z</time>
      </trkpt>
      <trkpt lat="42.8952" lon="0.10772">
        <ele>1527.39</ele>
        <time>2019-03-30T14:10:16Z</time>
      </trkpt>
      <trkpt lat="42.89537" lon="0.10779">
        <ele>1525.67</ele>
        <time>2019-03-30T14:10:20Z</time>
      </trkpt>
      <trkpt lat="42.89559" lon="0.10785">
        <ele>1519.98</ele>
        <time>2019-03-30T14:10:24Z</time>
      </trkpt>
      <trkpt lat="42.89583" lon="0.1079">
        <ele>1517.91</ele>
        <time>2019-03-30T14:10:27Z</time>
      </trkpt>
      <trkpt lat="42.89604" lon="0.10788">
        <ele>1516.83</ele>
        <time>2019-03-30T14:10:30Z</time>
      </trkpt>
      <trkpt lat="42.89622" lon="0.10782">
        <ele>1515.29</ele>
        <time>2019-03-30T14:10:33Z</time>
      </trkpt>
      <trkpt lat="42.89644" lon="0.10776">
        <ele>1512.33</ele>
        <time>2019-03-30T14:10:37Z</time>
      </trkpt>
      <trkpt lat="42.89666" lon="0.10778">
        <ele>1510.35</ele>
        <time>2019-03-30T14:10:41Z</time>
      </trkpt>
      <trkpt lat="42.89685" lon="0.10773">
        <ele>1508.42</ele>
        <time>2019-03-30T14:12:08Z</time>
      </trkpt>
      <trkpt lat="42.89704" lon="0.10769">
        <ele>1509.38</ele>
        <time>2019-03-30T14:15:08Z</time>
      </trkpt>
      <trkpt lat="42.89721" lon="0.10757">
        <ele>1506.64</ele>
        <time>2019-03-30T14:15:13Z</time>
      </trkpt>
      <trkpt lat="42.89742" lon="0.10749">
        <ele>1500.85</ele>
        <time>2019-03-30T14:15:18Z</time>
      </trkpt>
      <trkpt lat="42.89757" lon="0.10734">
        <ele>1498.9</ele>
        <time>2019-03-30T14:15:22Z</time>
      </trkpt>
      <trkpt lat="42.89773" lon="0.10718">
        <ele>1497.32</ele>
        <time>2019-03-30T14:15:26Z</time>
      </trkpt>
      <trkpt lat="42.89787" lon="0.10701">
        <ele>1495.9</ele>
        <time>2019-03-30T14:16:27Z</time>
      </trkpt>
      <trkpt lat="42.89804" lon="0.10693">
        <ele>1497.93</ele>
        <time>2019-03-30T14:16:43Z</time>
      </trkpt>
      <trkpt lat="42.89824" lon="0.10679">
        <ele>1492.36</ele>
        <time>2019-03-30T14:18:13Z</time>
      </trkpt>
      <trkpt lat="42.89843" lon="0.10663">
        <ele>1490.09</ele>
        <time>2019-03-30T14:18:18Z</time>
      </trkpt>
      <trkpt lat="42.89861" lon="0.10645">
        <ele>1487.03</ele>
        <time>2019-03-30T14:18:22Z</time>
      </trkpt>
      <trkpt lat="42.8988" lon="0.10642">
        <ele>1483.36</ele>
        <time>2019-03-30T14:18:25Z</time>
      </trkpt>
      <trkpt lat="42.89888" lon="0.1062">
        <ele>1478.75</ele>
        <time>2019-03-30T14:18:29Z</time>
      </trkpt>
      <trkpt lat="42.89895" lon="0.10597">
        <ele>1473.46</ele>
        <time>2019-03-30T14:18:32Z</time>
      </trkpt>
      <trkpt lat="42.89911" lon="0.1058">
        <ele>1467.03</ele>
        <time>2019-03-30T14:18:35Z</time>
      </trkpt>
      <trkpt lat="42.89929" lon="0.1057">
        <ele>1464.82</ele>
        <time>2019-03-30T14:18:38Z</time>
      </trkpt>
      <trkpt lat="42.89949" lon="0.10558">
        <ele>1460.63</ele>
        <time>2019-03-30T14:18:42Z</time>
      </trkpt>
      <trkpt lat="42.89968" lon="0.10556">
        <ele>1456.66</ele>
        <time>2019-03-30T14:18:47Z</time>
      </trkpt>
      <trkpt lat="42.89988" lon="0.10547">
        <ele>1453.2</ele>
        <time>2019-03-30T14:18:53Z</time>
      </trkpt>
      <trkpt lat="42.90006" lon="0.10532">
        <ele>1450.76</ele>
        <time>2019-03-30T14:18:57Z</time>
      </trkpt>
      <trkpt lat="42.90025" lon="0.10515">
        <ele>1448.13</ele>
        <time>2019-03-30T14:19:01Z</time>
      </trkpt>
      <trkpt lat="42.90031" lon="0.10489">
        <ele>1446.35</ele>
        <time>2019-03-30T14:19:04Z</time>
      </trkpt>
      <trkpt lat="42.9004" lon="0.10467">
        <ele>1443.62</ele>
        <time>2019-03-30T14:19:07Z</time>
      </trkpt>
      <trkpt lat="42.90058" lon="0.10459">
        <ele>1439.5</ele>
        <time>2019-03-30T14:19:10Z</time>
      </trkpt>
      <trkpt lat="42.90079" lon="0.10446">
        <ele>1434.64</ele>
        <time>2019-03-30T14:19:14Z</time>
      </trkpt>
      <trkpt lat="42.901" lon="0.10434">
        <ele>1429.28</ele>
        <time>2019-03-30T14:19:17Z</time>
      </trkpt>
      <trkpt lat="42.9012" lon="0.10425">
        <ele>1427.06</ele>
        <time>2019-03-30T14:19:20Z</time>
      </trkpt>
      <trkpt lat="42.90136" lon="0.10409">
        <ele>1424.19</ele>
        <time>2019-03-30T14:19:23Z</time>
      </trkpt>
      <trkpt lat="42.90151" lon="0.1039">
        <ele>1421.41</ele>
        <time>2019-03-30T14:19:26Z</time>
      </trkpt>
      <trkpt lat="42.90167" lon="0.10376">
        <ele>1419.27</ele>
        <time>2019-03-30T14:19:29Z</time>
      </trkpt>
      <trkpt lat="42.90191" lon="0.10369">
        <ele>1415.11</ele>
        <time>2019-03-30T14:19:33Z</time>
      </trkpt>
      <trkpt lat="42.90209" lon="0.10365">
        <ele>1412.67</ele>
        <time>2019-03-30T14:19:36Z</time>
      </trkpt>
      <trkpt lat="42.90227" lon="0.10361">
        <ele>1410.66</ele>
        <time>2019-03-30T14:19:39Z</time>
      </trkpt>
      <trkpt lat="42.90248" lon="0.10358">
        <ele>1408.69</ele>
        <time>2019-03-30T14:19:44Z</time>
      </trkpt>
      <trkpt lat="42.90266" lon="0.10355">
        <ele>1405.53</ele>
        <time>2019-03-30T14:19:51Z</time>
      </trkpt>
      <trkpt lat="42.90285" lon="0.10351">
        <ele>1402.47</ele>
        <time>2019-03-30T14:19:57Z</time>
      </trkpt>
      <trkpt lat="42.90304" lon="0.10348">
        <ele>1399.39</ele>
        <time>2019-03-30T14:20:02Z</time>
      </trkpt>
      <trkpt lat="42.90324" lon="0.10345">
        <ele>1396.84</ele>
        <time>2019-03-30T14:20:07Z</time>
      </trkpt>
      <trkpt lat="42.90338" lon="0.10329">
        <ele>1397.68</ele>
        <time>2019-03-30T14:20:15Z</time>
      </trkpt>
      <trkpt lat="42.90353" lon="0.10315">
        <ele>1400.02</ele>
        <time>2019-03-30T14:20:26Z</time>
      </trkpt>
      <trkpt lat="42.9037" lon="0.10304">
        <ele>1396.51</ele>
        <time>2019-03-30T14:21:58Z</time>
      </trkpt>
      <trkpt lat="42.9039" lon="0.1029">
        <ele>1396.24</ele>
        <time>2019-03-30T14:22:17Z</time>
      </trkpt>
      <trkpt lat="42.90407" lon="0.10282">
        <ele>1401.2</ele>
        <time>2019-03-30T14:22:29Z</time>
      </trkpt>
      <trkpt lat="42.90423" lon="0.1027">
        <ele>1403.48</ele>
        <time>2019-03-30T14:22:49Z</time>
      </trkpt>
    </trkseg>
  </trk>
</gpx>